sensor_id;sensor_type;location;lat;lon;timestamp;P1;P2;P0
58740;PMS7003;44512;53.046;18.604;2023-07-13T00:05:57;20;17;14
58740;PMS7003;44512;53.046;18.604;2023-07-13T00:16:22;20;18;14
58740;PMS7003;44512;53.046;18.604;2023-07-13T00:26:50;19;16;13
58740;PMS7003;44512;53.046;18.604;2023-07-13T00:37:18;17;17;14
58740;PMS7003;44512;53.046;18.604;2023-07-13T00:47:47;15;15;11
58740;PMS7003;44512;53.046;18.604;2023-07-13T00:58:15;19;18;15
58740;PMS7003;44512;53.046;18.604;2023-07-13T01:08:43;24;20;15
58740;PMS7003;44512;53.046;18.604;2023-07-13T01:19:16;21;20;15
58740;PMS7003;44512;53.046;18.604;2023-07-13T01:29:41;22;21;16
58740;PMS7003;44512;53.046;18.604;2023-07-13T01:40:09;21;20;14
58740;PMS7003;44512;53.046;18.604;2023-07-13T01:50:37;21;20;16
58740;PMS7003;44512;53.046;18.604;2023-07-13T02:01:05;25;20;16
58740;PMS7003;44512;53.046;18.604;2023-07-13T02:11:34;26;24;18
58740;PMS7003;44512;53.046;18.604;2023-07-13T02:22:02;24;21;16
58740;PMS7003;44512;53.046;18.604;2023-07-13T02:32:30;21;20;15
58740;PMS7003;44512;53.046;18.604;2023-07-13T02:42:59;21;20;15
58740;PMS7003;44512;53.046;18.604;2023-07-13T02:53:27;21;19;14
58740;PMS7003;44512;53.046;18.604;2023-07-13T03:03:55;17;15;12
58740;PMS7003;44512;53.046;18.604;2023-07-13T03:14:24;18;18;13
58740;PMS7003;44512;53.046;18.604;2023-07-13T03:24:52;18;16;13
58740;PMS7003;44512;53.046;18.604;2023-07-13T03:35:20;18;16;12
58740;PMS7003;44512;53.046;18.604;2023-07-13T03:45:49;16;15;12
58740;PMS7003;44512;53.046;18.604;2023-07-13T03:56:17;15;14;11
58740;PMS7003;44512;53.046;18.604;2023-07-13T04:06:45;14;13;10
58740;PMS7003;44512;53.046;18.604;2023-07-13T04:17:14;13;12;10
58740;PMS7003;44512;53.046;18.604;2023-07-13T04:27:42;12;12;10
58740;PMS7003;44512;53.046;18.604;2023-07-13T04:38:10;18;16;13
58740;PMS7003;44512;53.046;18.604;2023-07-13T04:48:39;16;15;11
58740;PMS7003;44512;53.046;18.604;2023-07-13T04:59:07;18;17;14
58740;PMS7003;44512;53.046;18.604;2023-07-13T05:09:36;18;17;13
58740;PMS7003;44512;53.046;18.604;2023-07-13T05:20:04;16;15;12
58740;PMS7003;44512;53.046;18.604;2023-07-13T05:30:32;12;12;10
58740;PMS7003;44512;53.046;18.604;2023-07-13T05:41:01;12;12;10
58740;PMS7003;44512;53.046;18.604;2023-07-13T05:51:29;10;10;9
58740;PMS7003;44512;53.046;18.604;2023-07-13T06:01:57;12;12;10
58740;PMS7003;44512;53.046;18.604;2023-07-13T06:12:26;13;13;11
58740;PMS7003;44512;53.046;18.604;2023-07-13T06:22:54;15;12;10
58740;PMS7003;44512;53.046;18.604;2023-07-13T06:33:22;12;10;8
58740;PMS7003;44512;53.046;18.604;2023-07-13T06:43:51;8;7;6
58740;PMS7003;44512;53.046;18.604;2023-07-13T06:54:19;6;6;4
58740;PMS7003;44512;53.046;18.604;2023-07-13T07:04:47;6;5;5
58740;PMS7003;44512;53.046;18.604;2023-07-13T07:15:16;5;5;4
58740;PMS7003;44512;53.046;18.604;2023-07-13T07:25:44;6;6;5
58740;PMS7003;44512;53.046;18.604;2023-07-13T07:36:12;5;4;3
58740;PMS7003;44512;53.046;18.604;2023-07-13T07:46:41;5;4;4
58740;PMS7003;44512;53.046;18.604;2023-07-13T07:57:09;5;4;3
58740;PMS7003;44512;53.046;18.604;2023-07-13T08:07:38;5;4;3
58740;PMS7003;44512;53.046;18.604;2023-07-13T08:18:06;5;5;4
58740;PMS7003;44512;53.046;18.604;2023-07-13T08:28:34;4;4;3
58740;PMS7003;44512;53.046;18.604;2023-07-13T08:39:03;4;4;3
58740;PMS7003;44512;53.046;18.604;2023-07-13T08:49:31;5;5;4
58740;PMS7003;44512;53.046;18.604;2023-07-13T08:59:59;5;4;3
58740;PMS7003;44512;53.046;18.604;2023-07-13T09:10:28;7;5;4
58740;PMS7003;44512;53.046;18.604;2023-07-13T09:31:28;6;5;4
58740;PMS7003;44512;53.046;18.604;2023-07-13T09:41:57;7;5;4
58740;PMS7003;44512;53.046;18.604;2023-07-13T09:52:21;5;5;4
58740;PMS7003;44512;53.046;18.604;2023-07-13T10:02:57;5;4;4
58740;PMS7003;44512;53.046;18.604;2023-07-13T10:23:47;3;3;3
58740;PMS7003;44512;53.046;18.604;2023-07-13T10:34:14;5;5;4
58740;PMS7003;44512;53.046;18.604;2023-07-13T10:44:42;8;6;5
58740;PMS7003;44512;53.046;18.604;2023-07-13T11:05:39;5;4;3
58740;PMS7003;44512;53.046;18.604;2023-07-13T11:26:39;5;5;4
58740;PMS7003;44512;53.046;18.604;2023-07-13T11:37:08;6;6;5
58740;PMS7003;44512;53.046;18.604;2023-07-13T11:47:32;6;6;5
58740;PMS7003;44512;53.046;18.604;2023-07-13T11:58:01;8;7;6
58740;PMS7003;44512;53.046;18.604;2023-07-13T12:08:29;7;7;6
58740;PMS7003;44512;53.046;18.604;2023-07-13T12:18:57;9;6;5
58740;PMS7003;44512;53.046;18.604;2023-07-13T12:29:26;7;7;5
58740;PMS7003;44512;53.046;18.604;2023-07-13T12:39:54;9;7;6
58740;PMS7003;44512;53.046;18.604;2023-07-13T12:50:23;7;7;5
58740;PMS7003;44512;53.046;18.604;2023-07-13T13:00:51;6;5;5
58740;PMS7003;44512;53.046;18.604;2023-07-13T13:11:20;7;7;5
58740;PMS7003;44512;53.046;18.604;2023-07-13T13:21:47;6;5;4
58740;PMS7003;44512;53.046;18.604;2023-07-13T13:32:15;7;5;5
58740;PMS7003;44512;53.046;18.604;2023-07-13T13:42:44;5;5;5
58740;PMS7003;44512;53.046;18.604;2023-07-13T13:53:12;6;5;5
58740;PMS7003;44512;53.046;18.604;2023-07-13T14:03:41;6;6;5
58740;PMS7003;44512;53.046;18.604;2023-07-13T14:14:12;5;4;4
58740;PMS7003;44512;53.046;18.604;2023-07-13T14:24:37;6;5;4
58740;PMS7003;44512;53.046;18.604;2023-07-13T14:35:07;6;4;3
58740;PMS7003;44512;53.046;18.604;2023-07-13T14:50:58;5;4;3
58740;PMS7003;44512;53.046;18.604;2023-07-13T15:01:26;5;4;4
58740;PMS7003;44512;53.046;18.604;2023-07-13T15:11:58;4;4;4
58740;PMS7003;44512;53.046;18.604;2023-07-13T15:22:23;4;4;4
58740;PMS7003;44512;53.046;18.604;2023-07-13T15:32:51;4;4;3
58740;PMS7003;44512;53.046;18.604;2023-07-13T15:43:19;6;5;5
58740;PMS7003;44512;53.046;18.604;2023-07-13T15:53:48;4;4;3
58740;PMS7003;44512;53.046;18.604;2023-07-13T16:04:16;4;4;3
58740;PMS7003;44512;53.046;18.604;2023-07-13T16:14:44;3;3;3
58740;PMS7003;44512;53.046;18.604;2023-07-13T16:25:16;4;4;3
58740;PMS7003;44512;53.046;18.604;2023-07-13T16:35:41;4;4;3
58740;PMS7003;44512;53.046;18.604;2023-07-13T16:46:10;3;3;3
58740;PMS7003;44512;53.046;18.604;2023-07-13T16:56:42;5;4;3
58740;PMS7003;44512;53.046;18.604;2023-07-13T17:07:10;3;3;3
58740;PMS7003;44512;53.046;18.604;2023-07-13T17:17:38;3;3;2
58740;PMS7003;44512;53.046;18.604;2023-07-13T17:28:07;3;3;3
58740;PMS7003;44512;53.046;18.604;2023-07-13T17:38:36;4;4;3
58740;PMS7003;44512;53.046;18.604;2023-07-13T17:49:04;3;3;3
58740;PMS7003;44512;53.046;18.604;2023-07-13T17:59:32;5;4;3
58740;PMS7003;44512;53.046;18.604;2023-07-13T18:10:00;4;2;2
58740;PMS7003;44512;53.046;18.604;2023-07-13T18:20:29;4;3;3
58740;PMS7003;44512;53.046;18.604;2023-07-13T18:30:57;5;4;3
58740;PMS7003;44512;53.046;18.604;2023-07-13T18:41:25;4;4;4
58740;PMS7003;44512;53.046;18.604;2023-07-13T18:51:54;4;4;3
58740;PMS7003;44512;53.046;18.604;2023-07-13T19:02:22;5;4;4
58740;PMS7003;44512;53.046;18.604;2023-07-13T19:12:51;6;6;5
58740;PMS7003;44512;53.046;18.604;2023-07-13T19:33:47;7;7;5
58740;PMS7003;44512;53.046;18.604;2023-07-13T19:44:15;9;8;6
58740;PMS7003;44512;53.046;18.604;2023-07-13T19:54:44;12;10;9
58740;PMS7003;44512;53.046;18.604;2023-07-13T20:05:13;9;8;7
58740;PMS7003;44512;53.046;18.604;2023-07-13T20:15:41;9;8;7
58740;PMS7003;44512;53.046;18.604;2023-07-13T20:26:09;9;8;7
58740;PMS7003;44512;53.046;18.604;2023-07-13T20:36:37;12;9;8
58740;PMS7003;44512;53.046;18.604;2023-07-13T20:47:08;11;10;8
58740;PMS7003;44512;53.046;18.604;2023-07-13T20:57:34;10;9;8
58740;PMS7003;44512;53.046;18.604;2023-07-13T21:08:02;10;9;8
58740;PMS7003;44512;53.046;18.604;2023-07-13T21:18:30;11;10;8
58740;PMS7003;44512;53.046;18.604;2023-07-13T21:29:02;9;8;7
58740;PMS7003;44512;53.046;18.604;2023-07-13T21:39:27;10;8;7
58740;PMS7003;44512;53.046;18.604;2023-07-13T21:49:55;8;7;6
58740;PMS7003;44512;53.046;18.604;2023-07-13T22:00:24;8;7;6
58740;PMS7003;44512;53.046;18.604;2023-07-13T22:10:52;8;7;6
58740;PMS7003;44512;53.046;18.604;2023-07-13T22:21:21;6;5;5
58740;PMS7003;44512;53.046;18.604;2023-07-13T22:31:49;4;4;4
58740;PMS7003;44512;53.046;18.604;2023-07-13T22:42:17;5;5;4
58740;PMS7003;44512;53.046;18.604;2023-07-13T22:52:45;6;5;5
58740;PMS7003;44512;53.046;18.604;2023-07-13T23:03:17;7;7;6
58740;PMS7003;44512;53.046;18.604;2023-07-13T23:13:42;8;7;6
58740;PMS7003;44512;53.046;18.604;2023-07-13T23:24:12;12;10;8
58740;PMS7003;44512;53.046;18.604;2023-07-13T23:34:39;12;10;8
58740;PMS7003;44512;53.046;18.604;2023-07-13T23:55:36;12;10;9
